Flight Briefing for CPX212

Departure Arrival
March Air Reserve Base (KRIV)
Click to view FAA NOTAMS
Sacramento International Airport (KSMF)
Click to view FAA NOTAMS
Departure Time Arrival Time
N/A N/A
Aircraft Distance
B767-300BDSF 362nm
Departure METAR Arrival METAR
KRIV 271107Z AUTO 00000KT 10SM FEW012 05/05 A2995 RMK AO2 SLP143 KSMF 271153Z 15007KT 10SM SCT070 BKN085 BKN110 12/09 A2999 RMK AO2 SLP153 60000 70009 T01170094 10117 20111 53004
Suggested Route
SLI J78 LAX J5 LANDO NURAY SUUTR2


View recent IFR Routes data
Notes



Charts and Procedures

Charts for KRIV
No chart available
Charts for KSMF
No chart available

Windy.com Weather Map